sensor_id;sensor_type;location;lat;lon;timestamp;pressure;altitude;pressure_sealevel;temperature;humidity
16030;BME280;34770;49.272;11.070;2023-03-18T21:35:43;97374.59;;;8.78;96.86
16030;BME280;34770;49.272;11.070;2023-03-18T21:38:08;97384.03;;;8.61;95.34
16030;BME280;34770;49.272;11.070;2023-03-18T21:40:34;97380.69;;;8.56;96.15
16030;BME280;34770;49.272;11.070;2023-03-18T21:43:00;97385.31;;;8.52;96.22
16030;BME280;34770;49.272;11.070;2023-03-18T21:45:26;97384.06;;;8.49;97.28
16030;BME280;34770;49.272;11.070;2023-03-18T21:47:53;97339.88;;;8.15;96.36
16030;BME280;34770;49.272;11.070;2023-03-18T21:50:23;97377.72;;;8.36;97.15
16030;BME280;34770;49.272;11.070;2023-03-18T21:52:49;97376.81;;;8.32;97.45
16030;BME280;34770;49.272;11.070;2023-03-18T21:55:14;97375.28;;;8.35;98.53
16030;BME280;34770;49.272;11.070;2023-03-18T21:57:41;97356.03;;;8.26;98.46
16030;BME280;34770;49.272;11.070;2023-03-18T22:00:08;97374.50;;;8.34;98.37
16030;BME280;34770;49.272;11.070;2023-03-18T22:02:38;97338.03;;;8.07;98.35
16030;BME280;34770;49.272;11.070;2023-03-18T22:05:10;97356.72;;;8.23;98.18
16030;BME280;34770;49.272;11.070;2023-03-18T22:07:37;97354.56;;;8.04;98.66
16030;BME280;34770;49.272;11.070;2023-03-18T22:10:02;97369.94;;;8.13;99.80
16030;BME280;34770;49.272;11.070;2023-03-18T22:12:30;97371.97;;;8.17;100.00
16030;BME280;34770;49.272;11.070;2023-03-18T22:14:57;97373.03;;;8.12;100.00
16030;BME280;34770;49.272;11.070;2023-03-18T22:19:50;97373.63;;;8.05;100.00
16030;BME280;34770;49.272;11.070;2023-03-18T22:22:18;97375.56;;;8.05;100.00
16030;BME280;34770;49.272;11.070;2023-03-18T22:24:45;97375.03;;;7.99;100.00
16030;BME280;34770;49.272;11.070;2023-03-18T22:27:30;97375.84;;;7.87;100.00
16030;BME280;34770;49.272;11.070;2023-03-18T22:29:57;97380.34;;;7.79;100.00
16030;BME280;34770;49.272;11.070;2023-03-18T22:34:58;97383.69;;;7.73;100.00
16030;BME280;34770;49.272;11.070;2023-03-18T22:37:24;97385.75;;;7.76;100.00
16030;BME280;34770;49.272;11.070;2023-03-18T22:39:50;97380.47;;;7.71;100.00
16030;BME280;34770;49.272;11.070;2023-03-18T22:42:24;97385.53;;;7.69;100.00
16030;BME280;34770;49.272;11.070;2023-03-18T22:44:50;97377.22;;;7.56;100.00
16030;BME280;34770;49.272;11.070;2023-03-18T22:47:18;97382.44;;;7.58;100.00
16030;BME280;34770;49.272;11.070;2023-03-18T22:49:44;97374.13;;;7.58;100.00
16030;BME280;34770;49.272;11.070;2023-03-18T22:52:28;97346.16;;;7.26;100.00
16030;BME280;34770;49.272;11.070;2023-03-18T22:55:00;97389.78;;;7.41;100.00
16030;BME280;34770;49.272;11.070;2023-03-18T22:57:27;97373.19;;;7.41;100.00
16030;BME280;34770;49.272;11.070;2023-03-18T22:59:54;97384.25;;;7.41;100.00
16030;BME280;34770;49.272;11.070;2023-03-18T23:02:25;97387.25;;;7.36;100.00
16030;BME280;34770;49.272;11.070;2023-03-18T23:04:52;97384.00;;;7.34;100.00
16030;BME280;34770;49.272;11.070;2023-03-18T23:07:32;97386.53;;;7.27;100.00
16030;BME280;34770;49.272;11.070;2023-03-18T23:10:00;97395.06;;;7.22;100.00
16030;BME280;34770;49.272;11.070;2023-03-18T23:12:28;97388.94;;;7.16;100.00
16030;BME280;34770;49.272;11.070;2023-03-18T23:14:55;97397.13;;;7.12;100.00
16030;BME280;34770;49.272;11.070;2023-03-18T23:17:23;97392.06;;;7.14;100.00
16030;BME280;34770;49.272;11.070;2023-03-18T23:19:50;97389.63;;;7.13;100.00
16030;BME280;34770;49.272;11.070;2023-03-18T23:22:30;97407.03;;;7.13;100.00
16030;BME280;34770;49.272;11.070;2023-03-18T23:24:56;97398.63;;;7.10;100.00
16030;BME280;34770;49.272;11.070;2023-03-18T23:27:23;97347.78;;;6.68;100.00
16030;BME280;34770;49.272;11.070;2023-03-18T23:29:49;97384.41;;;6.99;100.00
16030;BME280;34770;49.272;11.070;2023-03-18T23:32:16;97401.78;;;6.99;100.00
16030;BME280;34770;49.272;11.070;2023-03-18T23:34:42;97403.41;;;7.00;100.00
16030;BME280;34770;49.272;11.070;2023-03-18T23:37:09;97399.38;;;6.98;100.00
16030;BME280;34770;49.272;11.070;2023-03-18T23:39:35;97399.03;;;6.99;100.00
16030;BME280;34770;49.272;11.070;2023-03-18T23:42:14;97345.75;;;6.57;100.00
16030;BME280;34770;49.272;11.070;2023-03-18T23:44:39;97404.66;;;6.91;100.00
16030;BME280;34770;49.272;11.070;2023-03-18T23:47:06;97401.41;;;6.89;100.00
16030;BME280;34770;49.272;11.070;2023-03-18T23:49:32;97401.63;;;6.83;100.00
16030;BME280;34770;49.272;11.070;2023-03-18T23:51:59;97408.66;;;6.81;100.00
16030;BME280;34770;49.272;11.070;2023-03-18T23:54:24;97380.00;;;6.64;100.00
16030;BME280;34770;49.272;11.070;2023-03-18T23:56:50;97379.63;;;6.53;100.00
16030;BME280;34770;49.272;11.070;2023-03-18T23:59:16;97408.63;;;6.68;100.00
